createdAt,value
2018-07-26T00:00:23.684Z,100805.30
2018-07-26T00:02:52.092Z,100809.67
2018-07-26T00:05:20.531Z,100807.98
2018-07-26T00:07:48.953Z,100805.99
2018-07-26T00:10:17.409Z,100811.75
2018-07-26T00:12:46.465Z,100808.48
2018-07-26T00:15:14.900Z,100802.52
2018-07-26T00:17:43.352Z,100807.23
2018-07-26T00:20:11.809Z,100813.88
2018-07-26T00:22:40.210Z,100815.84
2018-07-26T00:25:08.599Z,100815.25
2018-07-26T00:27:37.073Z,100824.00
2018-07-26T00:30:06.044Z,100824.20
2018-07-26T00:32:34.504Z,100829.36
2018-07-26T00:35:02.912Z,100829.75
2018-07-26T00:37:31.395Z,100825.31
2018-07-26T00:39:59.851Z,100826.35
2018-07-26T00:42:28.326Z,100822.56
2018-07-26T00:44:56.750Z,100831.55
2018-07-26T00:47:25.158Z,100826.77
2018-07-26T00:49:53.544Z,100825.05
2018-07-26T00:52:21.911Z,100820.81
2018-07-26T00:54:50.304Z,100815.78
2018-07-26T00:57:19.693Z,100817.94
2018-07-26T00:59:48.083Z,100818.06
2018-07-26T01:02:16.516Z,100821.40
2018-07-26T01:04:44.875Z,100818.45
2018-07-26T01:07:13.476Z,100814.66
2018-07-26T01:09:41.894Z,100813.17
2018-07-26T01:12:10.344Z,100812.90
2018-07-26T01:14:38.920Z,100812.36
2018-07-26T01:17:07.417Z,100813.23
2018-07-26T01:19:36.078Z,100812.30
2018-07-26T01:22:04.690Z,100810.08
2018-07-26T01:24:33.163Z,100811.38
2018-07-26T01:27:02.642Z,100809.10
2018-07-26T01:29:31.088Z,100807.45
2018-07-26T01:31:59.540Z,100805.38
2018-07-26T01:34:28.006Z,100809.55
2018-07-26T01:36:56.436Z,100809.38
2018-07-26T01:39:24.848Z,100807.76
2018-07-26T01:41:53.660Z,100806.62
2018-07-26T01:44:23.737Z,100804.44
2018-07-26T01:46:52.224Z,100803.27
2018-07-26T01:49:20.687Z,100803.17
2018-07-26T01:51:49.189Z,100806.74
2018-07-26T01:54:17.732Z,100805.89
2018-07-26T01:56:46.255Z,100807.51
2018-07-26T01:59:14.730Z,100811.93
2018-07-26T02:01:43.114Z,100806.71
2018-07-26T02:04:11.531Z,100800.30
2018-07-26T02:06:40.000Z,100802.14
2018-07-26T02:09:09.997Z,100798.52
2018-07-26T02:11:38.552Z,100794.66
2018-07-26T02:14:11.160Z,100801.62
2018-07-26T02:16:39.744Z,100797.83
2018-07-26T02:19:08.348Z,100796.21
2018-07-26T02:21:36.824Z,100793.02
2018-07-26T02:24:05.280Z,100788.59
2018-07-26T02:26:33.718Z,100792.11
2018-07-26T02:29:02.120Z,100788.70
2018-07-26T02:31:30.608Z,100785.30
2018-07-26T02:33:59.063Z,100786.66
2018-07-26T02:36:27.770Z,100786.66
2018-07-26T02:38:56.144Z,100791.50
2018-07-26T02:41:24.538Z,100791.45
2018-07-26T02:43:52.980Z,100794.11
2018-07-26T02:46:21.349Z,100801.14
2018-07-26T02:48:49.842Z,100802.55
2018-07-26T02:51:18.253Z,100796.54
2018-07-26T02:53:46.917Z,100804.07
2018-07-26T02:56:15.340Z,100806.28
2018-07-26T02:58:43.735Z,100798.53
2018-07-26T03:01:12.172Z,100801.25
2018-07-26T03:03:40.764Z,100803.45
2018-07-26T03:06:09.213Z,100799.84
2018-07-26T03:08:37.677Z,100810.59
2018-07-26T03:11:06.105Z,100808.38
2018-07-26T03:13:34.664Z,100806.73
2018-07-26T03:16:03.055Z,100806.79
2018-07-26T03:18:31.487Z,100813.70
2018-07-26T03:21:00.019Z,100814.09
2018-07-26T03:23:28.370Z,100807.98
2018-07-26T03:25:57.671Z,100803.27
2018-07-26T03:28:26.143Z,100806.22
2018-07-26T03:30:54.532Z,100802.31
2018-07-26T03:33:22.943Z,100803.56
2018-07-26T03:35:51.398Z,100795.63
2018-07-26T03:38:19.813Z,100790.82
2018-07-26T03:40:48.256Z,100797.16
2018-07-26T03:43:16.696Z,100802.34
2018-07-26T03:48:12.505Z,100805.66
2018-07-26T03:50:40.994Z,100802.22
2018-07-26T03:53:09.458Z,100803.52
2018-07-26T03:55:37.872Z,100805.25
2018-07-26T03:58:06.255Z,100809.45
2018-07-26T04:00:34.760Z,100808.50
2018-07-26T04:03:03.182Z,100803.39
2018-07-26T04:05:31.640Z,100808.16
2018-07-26T04:08:00.109Z,100809.45
2018-07-26T04:10:28.588Z,100805.95
2018-07-26T04:12:57.094Z,100805.09
2018-07-26T04:15:25.535Z,100802.39
2018-07-26T04:20:26.776Z,100809.03
2018-07-26T04:22:55.256Z,100815.88
2018-07-26T04:25:23.688Z,100821.94
2018-07-26T04:27:52.198Z,100814.02
2018-07-26T04:30:20.614Z,100818.30
2018-07-26T04:32:49.010Z,100814.73
2018-07-26T04:35:17.520Z,100813.72
2018-07-26T04:37:45.981Z,100811.09
2018-07-26T04:40:14.424Z,100816.70
2018-07-26T04:42:42.916Z,100817.22
2018-07-26T04:45:11.331Z,100819.84
2018-07-26T04:47:39.789Z,100822.90
2018-07-26T04:50:08.232Z,100818.52
2018-07-26T04:52:36.673Z,100817.16
2018-07-26T04:55:05.114Z,100817.95
2018-07-26T04:57:33.503Z,100823.12
2018-07-26T05:00:01.894Z,100825.61
2018-07-26T05:02:30.312Z,100828.62
2018-07-26T05:04:58.823Z,100829.02
2018-07-26T05:07:27.216Z,100830.21
2018-07-26T05:09:55.646Z,100831.91
2018-07-26T05:12:24.046Z,100827.16
2018-07-26T05:14:52.468Z,100831.41
2018-07-26T05:17:20.928Z,100830.16
2018-07-26T05:19:49.409Z,100837.90
2018-07-26T05:22:17.848Z,100826.75
2018-07-26T05:24:46.324Z,100827.47
2018-07-26T05:27:14.802Z,100830.48
2018-07-26T05:29:43.201Z,100826.52
2018-07-26T05:32:11.597Z,100823.85
2018-07-26T05:34:40.112Z,100825.09
2018-07-26T05:37:08.583Z,100818.75
2018-07-26T05:39:36.978Z,100821.59
2018-07-26T05:42:05.465Z,100826.34
2018-07-26T05:44:33.925Z,100830.20
2018-07-26T05:47:02.340Z,100832.75
2018-07-26T05:49:30.750Z,100827.48
2018-07-26T05:51:59.184Z,100824.82
2018-07-26T05:54:27.648Z,100830.81
2018-07-26T05:56:56.044Z,100829.45
2018-07-26T05:59:24.508Z,100836.77
2018-07-26T06:01:53.073Z,100836.70
2018-07-26T06:04:21.544Z,100836.65
2018-07-26T06:06:50.009Z,100832.69
2018-07-26T06:09:18.440Z,100838.58
2018-07-26T06:11:46.900Z,100837.98
2018-07-26T06:14:15.474Z,100834.36
2018-07-26T06:16:44.647Z,100835.55
2018-07-26T06:19:13.073Z,100833.22
2018-07-26T06:21:41.529Z,100832.23
2018-07-26T06:24:10.003Z,100832.88
2018-07-26T06:26:39.064Z,100836.62
2018-07-26T06:29:07.518Z,100833.49
2018-07-26T06:31:36.373Z,100836.81
2018-07-26T06:34:04.948Z,100837.48
2018-07-26T06:36:33.412Z,100829.81
2018-07-26T06:39:01.953Z,100827.45
2018-07-26T06:41:30.419Z,100827.59
2018-07-26T06:43:58.889Z,100826.02
2018-07-26T06:46:27.356Z,100829.11
2018-07-26T06:48:55.792Z,100828.83
2018-07-26T06:51:24.282Z,100828.97
2018-07-26T06:53:52.754Z,100829.11
2018-07-26T06:56:22.144Z,100829.71
2018-07-26T06:58:50.572Z,100829.45
2018-07-26T07:01:19.013Z,100826.61
2018-07-26T07:03:47.565Z,100830.60
2018-07-26T07:06:16.586Z,100830.70
2018-07-26T07:08:45.121Z,100826.25
2018-07-26T07:11:13.755Z,100821.56
2018-07-26T07:13:42.224Z,100821.58
2018-07-26T07:16:10.813Z,100820.03
2018-07-26T07:18:39.241Z,100820.61
2018-07-26T07:21:08.861Z,100821.19
2018-07-26T07:23:39.237Z,100827.80
2018-07-26T07:26:07.731Z,100824.38
2018-07-26T07:28:36.160Z,100821.57
2018-07-26T07:31:04.685Z,100824.30
2018-07-26T07:33:33.138Z,100821.75
2018-07-26T07:36:01.655Z,100821.81
2018-07-26T07:38:30.124Z,100821.92
2018-07-26T07:40:58.559Z,100816.20
2018-07-26T07:43:27.134Z,100822.15
2018-07-26T07:45:55.611Z,100807.27
2018-07-26T07:48:24.032Z,100817.84
2018-07-26T07:50:52.454Z,100817.17
2018-07-26T07:53:21.005Z,100813.98
2018-07-26T07:55:49.521Z,100809.20
2018-07-26T07:58:17.959Z,100810.17
2018-07-26T08:00:46.399Z,100803.20
2018-07-26T08:03:14.897Z,100809.52
2018-07-26T08:05:43.375Z,100809.83
2018-07-26T08:08:11.909Z,100811.10
2018-07-26T08:10:40.325Z,100805.82
2018-07-26T08:13:08.823Z,100805.05
2018-07-26T08:15:37.286Z,100807.70
2018-07-26T08:18:06.500Z,100806.98
2018-07-26T08:20:34.960Z,100808.09
2018-07-26T08:23:03.443Z,100804.02
2018-07-26T08:25:31.866Z,100809.48
2018-07-26T08:28:00.352Z,100809.33
2018-07-26T08:30:28.921Z,100813.77
2018-07-26T08:32:57.429Z,100764.03
2018-07-26T08:35:25.862Z,100814.91
2018-07-26T08:37:54.355Z,100807.97
2018-07-26T08:40:23.379Z,100803.38
2018-07-26T08:42:51.968Z,100807.07
2018-07-26T08:45:20.548Z,100803.00
2018-07-26T08:47:49.022Z,100805.00
2018-07-26T08:50:17.487Z,100803.58
2018-07-26T08:55:20.635Z,100806.63
2018-07-26T08:57:49.074Z,100808.33
2018-07-26T09:00:18.550Z,100809.41
2018-07-26T09:02:47.814Z,100803.78
2018-07-26T09:05:16.740Z,100806.87
2018-07-26T09:07:45.813Z,100803.36
2018-07-26T09:10:14.951Z,100809.52
2018-07-26T09:12:43.393Z,100810.37
2018-07-26T09:15:12.197Z,100804.74
2018-07-26T09:17:40.624Z,100802.61
2018-07-26T09:20:09.081Z,100805.80
2018-07-26T09:22:37.469Z,100801.95
2018-07-26T09:25:05.925Z,100803.57
2018-07-26T09:27:34.357Z,100804.27
2018-07-26T09:30:02.828Z,100802.63
2018-07-26T09:32:31.261Z,100794.20
2018-07-26T09:34:59.700Z,100796.70
2018-07-26T09:37:28.142Z,100796.52
2018-07-26T09:39:56.548Z,100796.86
2018-07-26T09:42:25.039Z,100786.44
2018-07-26T09:44:53.569Z,100784.98
2018-07-26T09:47:22.011Z,100788.98
2018-07-26T09:49:50.572Z,100781.95
2018-07-26T09:52:19.014Z,100782.44
2018-07-26T09:54:47.448Z,100787.97
2018-07-26T09:57:15.886Z,100782.55
2018-07-26T09:59:44.295Z,100780.27
2018-07-26T10:02:12.808Z,100774.30
2018-07-26T10:04:41.273Z,100773.55
2018-07-26T10:07:09.741Z,100771.12
2018-07-26T10:09:38.136Z,100770.66
2018-07-26T10:12:06.584Z,100772.02
2018-07-26T10:14:35.017Z,100774.60
2018-07-26T10:17:03.417Z,100766.05
2018-07-26T10:19:31.920Z,100771.55
2018-07-26T10:22:00.344Z,100758.81
2018-07-26T10:24:28.791Z,100769.27
2018-07-26T10:26:57.210Z,100765.73
2018-07-26T10:29:25.648Z,100762.25
2018-07-26T10:31:54.151Z,100764.57
2018-07-26T10:34:22.533Z,100762.01
2018-07-26T10:36:51.085Z,100760.49
2018-07-26T10:39:19.553Z,100757.39
2018-07-26T10:41:48.027Z,100753.37
2018-07-26T10:44:16.487Z,100751.44
2018-07-26T10:46:44.878Z,100750.52
2018-07-26T10:49:13.266Z,100747.91
2018-07-26T10:51:41.714Z,100749.20
2018-07-26T10:54:10.162Z,100743.12
2018-07-26T10:56:38.652Z,100745.83
2018-07-26T10:59:07.043Z,100741.56
2018-07-26T11:01:35.769Z,100737.75
2018-07-26T11:04:04.272Z,100734.36
2018-07-26T11:06:32.753Z,100733.23
2018-07-26T11:09:01.164Z,100735.77
2018-07-26T11:11:29.550Z,100730.85
2018-07-26T11:13:57.980Z,100723.22
2018-07-26T11:16:26.455Z,100725.30
2018-07-26T11:18:54.971Z,100724.20
2018-07-26T11:21:23.368Z,100726.25
2018-07-26T11:23:51.851Z,100725.70
2018-07-26T11:26:20.303Z,100729.06
2018-07-26T11:28:48.795Z,100723.81
2018-07-26T11:31:17.275Z,100719.76
2018-07-26T11:33:45.723Z,100713.00
2018-07-26T11:36:14.366Z,100717.60
2018-07-26T11:38:42.864Z,100718.80
2018-07-26T11:41:11.344Z,100718.08
2018-07-26T11:43:39.798Z,100714.66
2018-07-26T11:46:08.282Z,100714.38
2018-07-26T11:48:36.735Z,100713.36
2018-07-26T11:51:05.216Z,100704.22
2018-07-26T11:53:33.691Z,100701.34
2018-07-26T11:56:02.132Z,100697.95
2018-07-26T11:58:30.619Z,100697.39
2018-07-26T12:00:59.035Z,100698.17
2018-07-26T12:03:27.461Z,100689.04
2018-07-26T12:05:56.607Z,100686.62
2018-07-26T12:08:25.006Z,100681.15
2018-07-26T12:10:53.464Z,100683.58
2018-07-26T12:13:21.919Z,100686.11
2018-07-26T12:15:50.307Z,100683.58
2018-07-26T12:18:18.799Z,100676.97
2018-07-26T12:20:47.260Z,100676.05
2018-07-26T12:23:15.736Z,100675.58
2018-07-26T12:25:44.221Z,100668.63
2018-07-26T12:28:12.667Z,100657.52
2018-07-26T12:30:41.607Z,100659.23
2018-07-26T12:33:10.017Z,100663.66
2018-07-26T12:35:38.453Z,100665.64
2018-07-26T12:38:06.844Z,100668.56
2018-07-26T12:40:35.335Z,100661.66
2018-07-26T12:43:03.785Z,100651.68
2018-07-26T12:45:32.347Z,100649.94
2018-07-26T12:48:00.833Z,100647.20
2018-07-26T12:50:29.270Z,100647.31
2018-07-26T12:52:57.747Z,100648.76
2018-07-26T12:55:26.205Z,100647.53
2018-07-26T12:57:55.128Z,100645.55
2018-07-26T13:00:23.572Z,100642.76
2018-07-26T13:02:52.056Z,100638.72
2018-07-26T13:05:20.505Z,100632.22
2018-07-26T13:07:48.933Z,100627.97
2018-07-26T13:10:17.351Z,100632.72
2018-07-26T13:12:45.817Z,100633.14
2018-07-26T13:15:14.284Z,100625.47
2018-07-26T13:17:42.755Z,100620.52
2018-07-26T13:20:11.205Z,100616.59
2018-07-26T13:22:39.640Z,100616.17
2018-07-26T13:25:08.118Z,100614.88
2018-07-26T13:27:36.582Z,100615.97
2018-07-26T13:30:05.689Z,100620.24
2018-07-26T13:32:34.190Z,100621.80
2018-07-26T13:35:02.657Z,100620.89
2018-07-26T13:37:31.090Z,100614.11
2018-07-26T13:39:59.717Z,100616.16
2018-07-26T13:42:28.100Z,100614.70
2018-07-26T13:44:56.534Z,100614.92
2018-07-26T13:47:25.057Z,100618.94
2018-07-26T13:49:53.581Z,100613.13
2018-07-26T13:52:22.045Z,100612.16
2018-07-26T13:54:50.425Z,100609.20
2018-07-26T13:57:18.903Z,100607.45
2018-07-26T13:59:47.335Z,100609.02
2018-07-26T14:02:15.757Z,100601.91
2018-07-26T14:04:44.163Z,100605.03
2018-07-26T14:07:12.657Z,100607.50
2018-07-26T14:09:41.096Z,100595.33
2018-07-26T14:12:09.527Z,100588.39
2018-07-26T14:14:37.959Z,100589.36
2018-07-26T14:17:06.429Z,100584.56
2018-07-26T14:19:34.866Z,100576.91
2018-07-26T14:22:03.399Z,100574.41
2018-07-26T14:24:31.935Z,100571.02
2018-07-26T14:27:00.369Z,100569.23
2018-07-26T14:29:28.872Z,100567.87
2018-07-26T14:31:57.354Z,100566.58
2018-07-26T14:34:25.977Z,100560.55
2018-07-26T14:36:54.421Z,100563.14
2018-07-26T14:39:23.080Z,100571.97
2018-07-26T14:41:51.597Z,100567.18
2018-07-26T14:44:20.016Z,100569.17
2018-07-26T14:46:48.423Z,100568.81
2018-07-26T14:49:16.833Z,100566.39
2018-07-26T14:51:45.353Z,100566.77
2018-07-26T14:54:13.757Z,100567.84
2018-07-26T14:56:42.242Z,100564.06
2018-07-26T14:59:10.727Z,100567.72
2018-07-26T15:01:39.149Z,100566.34
2018-07-26T15:04:08.360Z,100563.16
2018-07-26T15:06:36.748Z,100564.12
2018-07-26T15:09:08.080Z,100564.34
2018-07-26T15:11:36.634Z,100566.42
2018-07-26T15:14:05.074Z,100565.30
2018-07-26T15:16:33.557Z,100571.97
2018-07-26T15:19:02.086Z,100579.91
2018-07-26T15:21:30.538Z,100590.89
2018-07-26T15:23:59.002Z,100605.97
2018-07-26T15:26:27.409Z,100609.16
2018-07-26T15:28:55.828Z,100625.38
2018-07-26T15:31:24.284Z,100639.95
2018-07-26T15:33:52.736Z,100647.83
2018-07-26T15:36:21.156Z,100635.47
2018-07-26T15:38:49.653Z,100630.87
2018-07-26T15:41:18.085Z,100634.17
2018-07-26T15:43:46.552Z,100628.48
2018-07-26T15:46:14.977Z,100625.40
2018-07-26T15:48:43.355Z,100608.03
2018-07-26T15:51:11.937Z,100598.71
2018-07-26T15:53:40.496Z,100582.75
2018-07-26T15:56:08.941Z,100575.08
2018-07-26T15:58:37.488Z,100574.98
2018-07-26T16:01:06.040Z,100575.71
2018-07-26T16:03:34.730Z,100575.40
2018-07-26T16:06:03.117Z,100570.92
2018-07-26T16:08:31.558Z,100571.14
2018-07-26T16:10:59.965Z,100569.25
2018-07-26T16:13:28.430Z,100563.91
2018-07-26T16:15:56.875Z,100569.31
2018-07-26T16:18:25.293Z,100567.50
2018-07-26T16:20:53.743Z,100570.02
2018-07-26T16:23:22.145Z,100561.34
2018-07-26T16:25:50.618Z,100568.03
2018-07-26T16:28:19.071Z,100558.52
2018-07-26T16:30:47.496Z,100564.72
2018-07-26T16:33:16.000Z,100557.19
2018-07-26T16:35:44.400Z,100560.77
2018-07-26T16:38:12.881Z,100563.88
2018-07-26T16:40:41.287Z,100557.20
2018-07-26T16:43:09.812Z,100559.45
2018-07-26T16:45:38.335Z,100563.50
2018-07-26T16:48:06.799Z,100555.54
2018-07-26T16:50:35.225Z,100558.00
2018-07-26T16:53:03.783Z,100558.57
2018-07-26T16:55:32.189Z,100557.05
2018-07-26T16:58:00.660Z,100556.58
2018-07-26T17:00:29.099Z,100557.05
2018-07-26T17:02:57.531Z,100553.20
2018-07-26T17:05:26.015Z,100557.27
2018-07-26T17:07:54.567Z,100554.08
2018-07-26T17:10:22.977Z,100551.25
2018-07-26T17:12:51.433Z,100553.59
2018-07-26T17:15:19.878Z,100554.36
2018-07-26T17:17:50.069Z,100558.00
2018-07-26T17:20:18.547Z,100562.73
2018-07-26T17:22:47.070Z,100562.16
2018-07-26T17:25:17.347Z,100559.61
2018-07-26T17:27:45.844Z,100559.14
2018-07-26T17:30:14.328Z,100558.77
2018-07-26T17:32:42.765Z,100559.52
2018-07-26T17:35:11.223Z,100554.09
2018-07-26T17:37:39.651Z,100559.16
2018-07-26T17:40:08.144Z,100556.91
2018-07-26T17:42:36.650Z,100554.84
2018-07-26T17:45:07.630Z,100557.84
2018-07-26T17:47:36.104Z,100559.16
2018-07-26T17:50:05.594Z,100558.31
2018-07-26T17:52:34.419Z,100561.79
2018-07-26T17:55:03.192Z,100575.88
2018-07-26T17:57:31.627Z,100570.62
2018-07-26T18:00:00.079Z,100572.98
2018-07-26T18:02:28.559Z,100572.45
2018-07-26T18:04:57.028Z,100566.82
2018-07-26T18:07:25.460Z,100574.16
2018-07-26T18:09:53.930Z,100583.55
2018-07-26T18:12:22.373Z,100581.56
2018-07-26T18:14:50.793Z,100573.17
2018-07-26T18:17:19.247Z,100573.17
2018-07-26T18:19:47.694Z,100577.31
2018-07-26T18:22:16.139Z,100586.51
2018-07-26T18:24:44.561Z,100583.97
2018-07-26T18:27:12.986Z,100588.51
2018-07-26T18:29:41.419Z,100580.16
2018-07-26T18:32:09.914Z,100581.00
2018-07-26T18:34:38.352Z,100580.16
2018-07-26T18:37:06.895Z,100588.61
2018-07-26T18:39:35.400Z,100583.31
2018-07-26T18:42:03.861Z,100582.56
2018-07-26T18:44:32.233Z,100587.69
2018-07-26T18:47:00.660Z,100589.66
2018-07-26T18:49:29.160Z,100590.03
2018-07-26T18:51:57.541Z,100594.13
2018-07-26T18:54:25.965Z,100589.30
2018-07-26T18:56:54.469Z,100600.56
2018-07-26T18:59:23.617Z,100601.78
2018-07-26T19:01:52.041Z,100609.04
2018-07-26T19:04:20.516Z,100613.67
2018-07-26T19:06:49.001Z,100614.52
2018-07-26T19:09:17.478Z,100620.63
2018-07-26T19:11:45.962Z,100625.31
2018-07-26T19:14:14.416Z,100627.56
2018-07-26T19:16:42.924Z,100633.77
2018-07-26T19:19:11.394Z,100634.00
2018-07-26T19:21:39.868Z,100636.41
2018-07-26T19:24:08.377Z,100629.44
2018-07-26T19:26:36.792Z,100635.62
2018-07-26T19:29:05.672Z,100643.60
2018-07-26T19:31:34.207Z,100635.86
2018-07-26T19:34:02.596Z,100639.14
2018-07-26T19:36:31.104Z,100641.86
2018-07-26T19:38:59.642Z,100643.64
2018-07-26T19:41:29.024Z,100643.45
2018-07-26T19:43:57.502Z,100648.25
2018-07-26T19:46:26.016Z,100647.31
2018-07-26T19:48:54.433Z,100647.58
2018-07-26T19:51:22.906Z,100653.47
2018-07-26T19:53:51.381Z,100656.74
2018-07-26T19:56:19.802Z,100652.10
2018-07-26T19:58:48.221Z,100654.91
2018-07-26T20:01:16.683Z,100661.33
2018-07-26T20:03:45.704Z,100659.62
2018-07-26T20:06:14.083Z,100658.86
2018-07-26T20:08:42.483Z,100654.92
2018-07-26T20:11:11.007Z,100654.78
2018-07-26T20:13:39.405Z,100662.24
2018-07-26T20:16:07.909Z,100663.72
2018-07-26T20:18:36.472Z,100658.98
2018-07-26T20:21:04.900Z,100661.14
2018-07-26T20:23:33.377Z,100654.45
2018-07-26T20:26:01.853Z,100652.68
2018-07-26T20:28:30.309Z,100656.23
2018-07-26T20:30:58.733Z,100658.09
2018-07-26T20:33:27.174Z,100659.48
2018-07-26T20:35:55.588Z,100652.55
2018-07-26T20:38:23.981Z,100657.46
2018-07-26T20:40:52.400Z,100652.22
2018-07-26T20:43:20.856Z,100653.23
2018-07-26T20:45:49.329Z,100652.00
2018-07-26T20:48:17.780Z,100657.33
2018-07-26T20:50:46.239Z,100657.33
2018-07-26T20:53:14.646Z,100661.89
2018-07-26T20:55:43.064Z,100663.28
2018-07-26T20:58:12.156Z,100665.61
2018-07-26T21:00:42.321Z,100666.66
2018-07-26T21:03:13.829Z,100672.45
2018-07-26T21:05:42.734Z,100668.56
2018-07-26T21:08:12.688Z,100676.05
2018-07-26T21:10:41.397Z,100672.50
2018-07-26T21:13:10.933Z,100679.91
2018-07-26T21:15:41.531Z,100682.06
2018-07-26T21:18:10.441Z,100682.14
2018-07-26T21:20:40.408Z,100688.77
2018-07-26T21:23:09.694Z,100690.55
2018-07-26T21:25:38.967Z,100689.78
2018-07-26T21:28:07.982Z,100693.33
2018-07-26T21:30:36.784Z,100693.41
2018-07-26T21:33:06.989Z,100691.72
2018-07-26T21:35:35.516Z,100693.49
2018-07-26T21:38:03.930Z,100697.97
2018-07-26T21:40:32.357Z,100700.33
2018-07-26T21:43:01.742Z,100698.64
2018-07-26T21:45:30.155Z,100698.64
2018-07-26T21:47:58.586Z,100704.97
2018-07-26T21:50:26.980Z,100705.97
2018-07-26T21:52:55.414Z,100715.22
2018-07-26T21:55:24.246Z,100713.60
2018-07-26T21:57:52.652Z,100706.33
2018-07-26T22:00:21.036Z,100716.89
2018-07-26T22:02:49.497Z,100716.58
2018-07-26T22:05:17.948Z,100717.27
2018-07-26T22:07:46.369Z,100720.83
2018-07-26T22:10:14.876Z,100727.14
2018-07-26T22:12:44.183Z,100725.95
2018-07-26T22:15:13.508Z,100725.18
2018-07-26T22:17:41.872Z,100722.87
2018-07-26T22:20:10.402Z,100723.87
2018-07-26T22:22:38.781Z,100715.77
2018-07-26T22:25:07.238Z,100727.30
2018-07-26T22:27:35.617Z,100724.75
2018-07-26T22:30:04.420Z,100727.09
2018-07-26T22:32:32.948Z,100728.95
2018-07-26T22:35:01.290Z,100726.02
2018-07-26T22:37:29.722Z,100729.63
2018-07-26T22:39:58.131Z,100730.52
2018-07-26T22:42:26.575Z,100723.98
2018-07-26T22:44:55.049Z,100730.86
2018-07-26T22:47:23.479Z,100729.09
2018-07-26T22:49:51.940Z,100732.10
2018-07-26T22:52:20.374Z,100725.55
2018-07-26T22:54:48.776Z,100727.78
2018-07-26T22:57:17.228Z,100682.86
2018-07-26T22:59:45.653Z,100730.80
2018-07-26T23:02:14.190Z,100728.56
2018-07-26T23:04:42.601Z,100723.32
2018-07-26T23:07:11.064Z,100729.63
2018-07-26T23:09:39.479Z,100726.09
2018-07-26T23:12:07.907Z,100727.78
2018-07-26T23:14:36.293Z,100715.34
2018-07-26T23:17:04.723Z,100723.59
2018-07-26T23:19:33.152Z,100726.67
2018-07-26T23:22:01.640Z,100728.91
2018-07-26T23:24:30.065Z,100731.59
2018-07-26T23:26:58.403Z,100722.36
2018-07-26T23:29:26.842Z,100720.34
2018-07-26T23:31:55.259Z,100726.89
2018-07-26T23:34:23.710Z,100723.50
2018-07-26T23:36:52.104Z,100724.03
2018-07-26T23:39:20.572Z,100721.56
2018-07-26T23:41:49.035Z,100720.72
2018-07-26T23:44:17.505Z,100719.09
2018-07-26T23:46:45.900Z,100723.52
2018-07-26T23:49:14.292Z,100721.44
2018-07-26T23:51:42.688Z,100721.83
2018-07-26T23:54:11.112Z,100725.75
2018-07-26T23:56:39.519Z,100728.91
2018-07-26T23:59:07.895Z,100726.28
